createdAt,value
2023-04-25T00:02:00.785Z,79.39
2023-04-25T00:04:28.584Z,79.50
2023-04-25T00:06:55.747Z,79.80
2023-04-25T00:09:23.137Z,80.08
2023-04-25T00:11:49.658Z,79.56
2023-04-25T00:14:17.797Z,79.53
2023-04-25T00:16:45.161Z,79.65
2023-04-25T00:19:11.793Z,80.33
2023-04-25T00:21:41.601Z,80.58
2023-04-25T00:24:08.783Z,80.55
2023-04-25T00:26:37.833Z,80.51
2023-04-25T00:29:04.530Z,80.83
2023-04-25T00:31:31.667Z,80.07
2023-04-25T00:33:58.323Z,80.54
2023-04-25T00:36:25.898Z,81.31
2023-04-25T00:38:56.635Z,81.40
2023-04-25T00:41:24.668Z,80.78
2023-04-25T00:43:52.701Z,80.85
2023-04-25T00:46:19.570Z,81.63
2023-04-25T00:48:46.494Z,81.96
2023-04-25T00:51:20.089Z,81.40
2023-04-25T00:53:47.774Z,81.43
2023-04-25T00:56:14.964Z,81.36
2023-04-25T00:58:44.399Z,81.56
2023-04-25T01:01:12.832Z,81.52
2023-04-25T01:03:44.084Z,81.77
2023-04-25T01:06:11.933Z,81.28
2023-04-25T01:08:39.883Z,81.57
2023-04-25T01:11:07.482Z,81.56
2023-04-25T01:13:35.715Z,81.84
2023-04-25T01:16:04.558Z,82.16
2023-04-25T01:18:32.961Z,81.86
2023-04-25T01:21:13.273Z,80.97
2023-04-25T01:23:41.597Z,81.45
2023-04-25T01:30:15.650Z,82.17
2023-04-25T01:32:46.273Z,81.31
2023-04-25T01:35:13.413Z,81.91
2023-04-25T01:37:41.178Z,81.01
2023-04-25T01:40:11.332Z,81.41
2023-04-25T01:42:40.258Z,81.68
2023-04-25T01:45:08.082Z,81.23
2023-04-25T01:47:36.269Z,81.20
2023-04-25T01:50:07.997Z,81.68
2023-04-25T01:52:35.950Z,81.99
2023-04-25T01:55:03.690Z,81.52
2023-04-25T01:57:33.148Z,81.14
2023-04-25T02:00:07.817Z,81.71
2023-04-25T02:02:40.556Z,81.78
2023-04-25T02:05:20.705Z,81.49
2023-04-25T02:07:48.562Z,81.84
2023-04-25T02:10:16.007Z,81.73
2023-04-25T02:13:12.099Z,81.33
2023-04-25T02:15:58.407Z,81.51
2023-04-25T02:18:25.142Z,82.15
2023-04-25T02:20:52.267Z,81.48
2023-04-25T02:23:20.099Z,81.19
2023-04-25T02:25:47.585Z,80.97
2023-04-25T02:28:16.565Z,81.33
2023-04-25T02:30:43.267Z,81.62
2023-04-25T02:33:09.872Z,81.76
2023-04-25T02:35:37.843Z,81.62
2023-04-25T02:38:04.328Z,81.99
2023-04-25T02:40:31.123Z,82.15
2023-04-25T02:42:58.229Z,82.02
2023-04-25T02:45:26.965Z,82.02
2023-04-25T02:47:53.554Z,82.21
2023-04-25T02:50:20.242Z,81.39
2023-04-25T02:52:47.331Z,81.55
2023-04-25T02:55:22.132Z,81.82
2023-04-25T02:57:49.284Z,80.95
2023-04-25T03:00:26.084Z,80.69
2023-04-25T03:02:53.111Z,81.08
2023-04-25T03:05:20.351Z,81.02
2023-04-25T03:07:48.547Z,80.68
2023-04-25T03:10:17.144Z,80.65
2023-04-25T03:12:48.148Z,80.59
2023-04-25T03:15:15.210Z,80.64
2023-04-25T03:17:42.660Z,80.84
2023-04-25T03:20:10.126Z,80.86
2023-04-25T03:22:37.888Z,80.03
2023-04-25T03:25:05.246Z,80.65
2023-04-25T03:27:32.606Z,80.18
2023-04-25T03:29:59.230Z,81.14
2023-04-25T03:32:27.611Z,80.84
2023-04-25T03:34:54.845Z,80.84
2023-04-25T03:37:22.793Z,81.35
2023-04-25T03:39:49.523Z,80.90
2023-04-25T03:42:18.595Z,81.74
2023-04-25T03:44:45.343Z,81.93
2023-04-25T03:47:13.515Z,82.40
2023-04-25T03:49:40.266Z,82.15
2023-04-25T03:52:07.049Z,82.01
2023-04-25T03:54:37.326Z,81.41
2023-04-25T03:57:11.572Z,81.67
2023-04-25T03:59:40.067Z,81.46
2023-04-25T04:02:10.869Z,81.57
2023-04-25T04:04:38.805Z,81.27
2023-04-25T04:07:06.501Z,81.44
2023-04-25T04:09:36.930Z,81.96
2023-04-25T04:12:08.430Z,81.70
2023-04-25T04:14:36.739Z,81.99
2023-04-25T04:17:03.821Z,81.86
2023-04-25T04:19:31.057Z,81.70
2023-04-25T04:22:09.946Z,81.82
2023-04-25T04:24:37.967Z,81.38
2023-04-25T04:27:07.626Z,81.50
2023-04-25T04:29:42.593Z,81.48
2023-04-25T04:32:17.065Z,82.75
2023-04-25T04:34:44.366Z,82.40
2023-04-25T04:37:15.809Z,82.74
2023-04-25T04:39:44.431Z,82.83
2023-04-25T04:42:25.359Z,82.40
2023-04-25T04:45:15.510Z,82.84
2023-04-25T04:48:00.793Z,83.02
2023-04-25T04:50:33.603Z,83.76
2023-04-25T04:53:08.696Z,84.53
2023-04-25T04:55:49.201Z,83.71
2023-04-25T04:58:25.624Z,84.53
2023-04-25T05:01:03.945Z,84.45
2023-04-25T05:03:36.746Z,85.22
2023-04-25T05:06:11.593Z,85.47
2023-04-25T05:09:03.255Z,85.33
2023-04-25T05:11:59.911Z,85.70
2023-04-25T05:14:47.001Z,86.10
2023-04-25T05:17:32.801Z,85.14
2023-04-25T05:20:10.524Z,85.18
2023-04-25T05:23:01.482Z,85.33
2023-04-25T05:26:03.328Z,86.59
2023-04-25T05:28:53.433Z,86.02
2023-04-25T05:31:40.572Z,86.07
2023-04-25T05:34:11.216Z,85.79
2023-04-25T05:36:49.581Z,85.05
2023-04-25T05:39:19.229Z,86.40
2023-04-25T05:42:04.831Z,85.57
2023-04-25T05:45:00.425Z,85.93
2023-04-25T05:48:02.601Z,85.96
2023-04-25T05:50:47.619Z,86.31
2023-04-25T05:53:32.749Z,85.51
2023-04-25T05:56:02.070Z,85.91
2023-04-25T05:58:29.949Z,85.04
2023-04-25T06:00:57.866Z,85.00
2023-04-25T06:03:25.000Z,84.76
2023-04-25T06:05:51.992Z,85.18
2023-04-25T06:08:21.266Z,85.15
2023-04-25T06:10:49.266Z,84.43
2023-04-25T06:13:16.634Z,84.27
2023-04-25T06:15:43.885Z,84.14
2023-04-25T06:18:10.536Z,83.83
2023-04-25T06:20:37.251Z,83.84
2023-04-25T06:23:09.182Z,83.32
2023-04-25T06:25:46.761Z,83.82
2023-04-25T06:28:16.588Z,83.06
2023-04-25T06:30:44.566Z,83.98
2023-04-25T06:33:14.995Z,84.04
2023-04-25T06:35:42.225Z,83.48
2023-04-25T06:38:12.020Z,83.17
2023-04-25T06:40:41.394Z,83.66
2023-04-25T06:43:13.804Z,84.21
2023-04-25T06:45:56.026Z,83.92
2023-04-25T06:48:29.913Z,83.33
2023-04-25T06:50:57.441Z,82.74
2023-04-25T06:53:25.544Z,82.79
2023-04-25T06:55:58.278Z,82.43
2023-04-25T06:58:30.248Z,83.10
2023-04-25T07:01:07.935Z,82.38
2023-04-25T07:03:35.391Z,82.14
2023-04-25T07:06:07.768Z,82.39
2023-04-25T07:08:34.598Z,82.50
2023-04-25T07:11:01.689Z,82.32
2023-04-25T07:13:32.586Z,82.67
2023-04-25T07:16:00.624Z,82.35
2023-04-25T07:18:29.466Z,91.49
2023-04-25T07:20:56.118Z,94.10
2023-04-25T07:23:23.964Z,90.80
2023-04-25T07:25:51.161Z,87.72
2023-04-25T07:28:21.803Z,81.75
2023-04-25T07:30:49.626Z,78.87
2023-04-25T07:33:16.886Z,73.68
2023-04-25T07:35:44.147Z,73.40
2023-04-25T07:38:12.092Z,74.37
2023-04-25T07:40:40.536Z,76.61
2023-04-25T07:43:08.894Z,77.47
2023-04-25T07:45:47.346Z,78.95
2023-04-25T07:48:22.391Z,80.13
2023-04-25T07:50:51.698Z,81.32
2023-04-25T07:53:19.536Z,84.11
2023-04-25T07:55:52.735Z,82.90
2023-04-25T07:58:23.171Z,83.97
2023-04-25T08:00:57.060Z,86.30
2023-04-25T08:03:47.353Z,86.46
2023-04-25T08:06:21.506Z,87.75
2023-04-25T08:09:17.941Z,86.41
2023-04-25T08:11:47.251Z,85.53
2023-04-25T08:14:17.636Z,85.54
2023-04-25T08:16:46.387Z,85.55
2023-04-25T08:19:14.094Z,85.58
2023-04-25T08:21:41.542Z,86.35
2023-04-25T08:24:12.480Z,85.83
2023-04-25T08:26:43.078Z,86.29
2023-04-25T08:29:14.115Z,87.33
2023-04-25T08:31:41.849Z,87.73
2023-04-25T08:34:08.996Z,88.77
2023-04-25T08:36:48.550Z,88.66
2023-04-25T08:39:38.831Z,89.15
2023-04-25T08:42:24.280Z,89.93
2023-04-25T08:44:53.977Z,88.57
2023-04-25T08:47:24.048Z,88.67
2023-04-25T08:49:57.070Z,87.70
2023-04-25T08:52:25.475Z,87.75
2023-04-25T08:54:55.295Z,88.11
2023-04-25T08:57:22.880Z,89.89
2023-04-25T08:59:51.528Z,88.09
2023-04-25T09:02:22.781Z,85.79
2023-04-25T09:04:51.762Z,84.94
2023-04-25T09:07:22.409Z,84.24
2023-04-25T09:09:51.312Z,82.00
2023-04-25T09:12:21.685Z,82.21
2023-04-25T09:15:09.431Z,83.43
2023-04-25T09:18:01.225Z,83.74
2023-04-25T09:21:00.665Z,83.55
2023-04-25T09:23:29.840Z,83.96
2023-04-25T09:25:56.774Z,83.43
2023-04-25T09:28:30.847Z,82.06
2023-04-25T09:31:01.581Z,82.62
2023-04-25T09:33:37.225Z,82.92
2023-04-25T09:36:14.509Z,82.67
2023-04-25T09:39:16.785Z,82.88
2023-04-25T09:41:54.968Z,81.96
2023-04-25T09:44:25.493Z,82.44
2023-04-25T09:46:54.702Z,82.19
2023-04-25T09:49:27.074Z,80.74
2023-04-25T09:52:04.152Z,80.90
2023-04-25T09:54:53.033Z,80.79
2023-04-25T09:57:27.555Z,82.46
2023-04-25T10:00:01.689Z,82.86
2023-04-25T10:02:44.289Z,82.09
2023-04-25T10:05:19.763Z,80.89
2023-04-25T10:07:47.410Z,77.65
2023-04-25T10:10:17.565Z,77.99
2023-04-25T10:12:45.947Z,77.07
2023-04-25T10:15:16.763Z,76.32
2023-04-25T10:17:44.700Z,74.92
2023-04-25T10:20:12.089Z,74.71
2023-04-25T10:22:42.832Z,74.33
2023-04-25T10:25:10.160Z,71.26
2023-04-25T10:27:37.961Z,69.49
2023-04-25T10:30:12.665Z,73.13
2023-04-25T10:32:40.108Z,73.72
2023-04-25T10:35:19.876Z,72.16
2023-04-25T10:38:32.183Z,73.78
2023-04-25T10:41:06.597Z,74.55
2023-04-25T10:43:43.427Z,75.79
2023-04-25T10:46:20.448Z,76.58
2023-04-25T10:48:49.595Z,76.46
2023-04-25T10:51:20.463Z,75.42
2023-04-25T10:53:49.270Z,73.79
2023-04-25T10:56:24.421Z,69.69
2023-04-25T10:59:04.019Z,70.71
2023-04-25T11:01:38.613Z,72.73
2023-04-25T11:04:06.857Z,71.98
2023-04-25T11:06:44.468Z,73.49
2023-04-25T11:09:18.029Z,69.23
2023-04-25T11:11:55.049Z,72.58
2023-04-25T11:14:23.068Z,70.04
2023-04-25T11:17:00.558Z,71.55
2023-04-25T11:19:28.675Z,71.10
2023-04-25T11:21:59.594Z,67.51
2023-04-25T11:24:38.190Z,67.08
2023-04-25T11:27:07.037Z,70.48
2023-04-25T11:29:35.081Z,71.57
2023-04-25T11:32:07.850Z,68.89
2023-04-25T11:34:45.570Z,72.05
2023-04-25T11:37:14.003Z,72.76
2023-04-25T11:39:45.251Z,69.13
2023-04-25T11:42:13.563Z,69.98
2023-04-25T11:44:42.579Z,68.34
2023-04-25T11:47:09.229Z,67.08
2023-04-25T11:49:36.977Z,66.92
2023-04-25T11:52:08.138Z,68.92
2023-04-25T11:54:38.446Z,66.79
2023-04-25T11:57:05.465Z,66.63
2023-04-25T11:59:32.112Z,68.12
2023-04-25T12:01:59.264Z,64.83
2023-04-25T12:04:26.269Z,68.65
2023-04-25T12:06:55.345Z,65.79
2023-04-25T12:09:33.860Z,64.64
2023-04-25T12:12:04.788Z,66.00
2023-04-25T12:14:35.143Z,65.72
2023-04-25T12:17:05.368Z,63.33
2023-04-25T12:19:40.645Z,59.94
2023-04-25T12:22:21.454Z,62.08
2023-04-25T12:24:48.128Z,62.04
2023-04-25T12:27:17.777Z,62.62
2023-04-25T12:29:56.980Z,62.73
2023-04-25T12:32:23.890Z,61.93
2023-04-25T12:34:51.251Z,62.96
2023-04-25T12:37:18.072Z,61.12
2023-04-25T12:39:44.559Z,61.14
2023-04-25T12:42:13.516Z,61.05
2023-04-25T12:44:41.259Z,60.56
2023-04-25T12:47:08.373Z,62.14
2023-04-25T12:49:35.238Z,62.86
2023-04-25T12:52:02.095Z,61.45
2023-04-25T12:54:28.734Z,61.23
2023-04-25T12:56:56.117Z,59.71
2023-04-25T12:59:22.743Z,59.38
2023-04-25T13:01:49.709Z,62.79
2023-04-25T13:07:03.277Z,61.02
2023-04-25T13:09:29.864Z,61.91
2023-04-25T13:11:59.203Z,60.54
2023-04-25T13:14:26.253Z,60.44
2023-04-25T13:16:52.947Z,61.07
2023-04-25T13:19:21.836Z,61.11
2023-04-25T13:21:48.694Z,60.88
2023-04-25T13:24:16.909Z,59.01
2023-04-25T13:26:43.433Z,59.93
2023-04-25T13:29:10.226Z,59.62
2023-04-25T13:31:36.886Z,60.60
2023-04-25T13:34:03.761Z,60.23
2023-04-25T13:36:30.292Z,59.23
2023-04-25T13:38:58.819Z,58.53
2023-04-25T13:41:25.477Z,57.78
2023-04-25T13:43:52.563Z,57.88
2023-04-25T13:46:40.910Z,57.98
2023-04-25T13:49:12.863Z,58.69
2023-04-25T13:51:40.469Z,58.63
2023-04-25T13:54:08.889Z,58.16
2023-04-25T13:56:37.309Z,58.65
2023-04-25T13:59:04.136Z,60.55
2023-04-25T14:01:32.272Z,60.82
2023-04-25T14:03:59.272Z,61.83
2023-04-25T14:06:26.515Z,61.30
2023-04-25T14:08:53.152Z,68.20
2023-04-25T14:11:20.132Z,59.60
2023-04-25T14:13:47.590Z,58.50
2023-04-25T14:16:14.271Z,58.73
2023-04-25T14:18:41.128Z,60.71
2023-04-25T14:21:07.924Z,59.85
2023-04-25T14:23:35.102Z,59.18
2023-04-25T14:26:01.836Z,58.55
2023-04-25T14:28:28.589Z,57.52
2023-04-25T14:30:56.126Z,58.99
2023-04-25T14:33:23.197Z,58.74
2023-04-25T14:35:50.295Z,58.73
2023-04-25T14:38:17.044Z,58.06
2023-04-25T14:40:43.507Z,57.36
2023-04-25T14:43:10.757Z,55.58
2023-04-25T14:45:37.534Z,56.47
2023-04-25T14:48:04.492Z,57.20
2023-04-25T14:50:31.153Z,56.84
2023-04-25T14:53:00.325Z,56.20
2023-04-25T14:55:27.586Z,54.37
2023-04-25T14:57:57.869Z,57.10
2023-04-25T15:00:26.386Z,55.96
2023-04-25T15:02:53.175Z,56.14
2023-04-25T15:05:21.027Z,56.81
2023-04-25T15:07:49.123Z,56.62
2023-04-25T15:10:17.422Z,54.94
2023-04-25T15:12:45.665Z,53.40
2023-04-25T15:15:22.798Z,54.43
2023-04-25T15:17:54.828Z,54.56
2023-04-25T15:20:23.219Z,53.83
2023-04-25T15:22:50.062Z,53.89
2023-04-25T15:25:20.008Z,53.76
2023-04-25T15:27:49.506Z,53.23
2023-04-25T15:30:17.542Z,54.01
2023-04-25T15:32:48.071Z,54.21
2023-04-25T15:35:15.953Z,54.11
2023-04-25T15:37:42.608Z,53.48
2023-04-25T15:40:12.431Z,54.20
2023-04-25T15:42:39.883Z,55.98
2023-04-25T15:45:08.146Z,55.84
2023-04-25T15:47:36.454Z,57.08
2023-04-25T15:50:05.399Z,56.60
2023-04-25T15:52:32.418Z,57.96
2023-04-25T15:55:01.770Z,57.57
2023-04-25T15:57:28.318Z,56.77
2023-04-25T15:59:54.898Z,54.66
2023-04-25T16:02:22.237Z,56.22
2023-04-25T16:04:49.267Z,53.93
2023-04-25T16:07:16.312Z,55.49
2023-04-25T16:09:43.119Z,55.80
2023-04-25T16:12:11.242Z,55.09
2023-04-25T16:14:38.117Z,54.33
2023-04-25T16:17:04.881Z,53.27
2023-04-25T16:19:31.729Z,54.43
2023-04-25T16:21:58.256Z,53.54
2023-04-25T16:24:25.077Z,54.27
2023-04-25T16:26:51.917Z,53.14
2023-04-25T16:29:18.403Z,52.85
2023-04-25T16:31:47.437Z,54.44
2023-04-25T16:34:15.416Z,53.62
2023-04-25T16:36:42.272Z,52.62
2023-04-25T16:39:09.916Z,53.53
2023-04-25T16:41:37.269Z,54.19
2023-04-25T16:44:03.800Z,54.36
2023-04-25T16:46:32.050Z,53.74
2023-04-25T16:49:01.187Z,53.90
2023-04-25T16:51:28.126Z,53.95
2023-04-25T16:53:57.414Z,53.46
2023-04-25T16:56:27.128Z,53.53
2023-04-25T16:58:54.442Z,53.27
2023-04-25T17:01:21.487Z,53.96
2023-04-25T17:03:48.630Z,53.84
2023-04-25T17:06:19.713Z,53.59
2023-04-25T17:08:46.209Z,54.75
2023-04-25T17:11:12.849Z,55.32
2023-04-25T17:13:40.102Z,55.27
2023-04-25T17:16:07.489Z,54.74
2023-04-25T17:18:34.346Z,55.25
2023-04-25T17:21:02.004Z,55.81
2023-04-25T17:23:28.527Z,55.54
2023-04-25T17:25:55.454Z,55.55
2023-04-25T17:28:22.217Z,56.07
2023-04-25T17:30:48.825Z,56.74
2023-04-25T17:33:15.530Z,57.13
2023-04-25T17:35:42.096Z,57.03
2023-04-25T17:38:08.932Z,56.62
2023-04-25T17:40:35.538Z,56.43
2023-04-25T17:43:02.025Z,57.35
2023-04-25T17:45:34.853Z,56.93
2023-04-25T17:48:02.237Z,56.84
2023-04-25T17:50:29.022Z,57.11
2023-04-25T17:52:55.897Z,55.73
2023-04-25T17:55:23.239Z,57.18
2023-04-25T17:57:50.060Z,54.71
2023-04-25T18:00:18.573Z,57.50
2023-04-25T18:02:52.302Z,55.98
2023-04-25T18:05:31.025Z,56.82
2023-04-25T18:07:57.838Z,56.42
2023-04-25T18:10:24.559Z,56.81
2023-04-25T18:12:51.547Z,58.41
2023-04-25T18:15:18.920Z,58.16
2023-04-25T18:17:45.965Z,57.83
2023-04-25T18:20:17.810Z,58.72
2023-04-25T18:22:45.366Z,57.06
2023-04-25T18:25:14.254Z,56.90
2023-04-25T18:27:41.695Z,57.46
2023-04-25T18:30:11.191Z,57.77
2023-04-25T18:32:38.069Z,57.34
2023-04-25T18:35:06.313Z,57.72
2023-04-25T18:37:32.995Z,58.68
2023-04-25T18:39:59.774Z,60.68
2023-04-25T18:42:26.517Z,59.27
2023-04-25T18:44:53.036Z,64.40
2023-04-25T18:47:19.989Z,70.39
2023-04-25T18:49:48.047Z,67.19
2023-04-25T18:52:16.721Z,64.94
2023-04-25T18:54:43.330Z,63.17
2023-04-25T18:57:11.621Z,60.79
2023-04-25T18:59:38.158Z,58.56
2023-04-25T19:02:05.673Z,59.44
2023-04-25T19:04:32.628Z,57.60
2023-04-25T19:06:59.833Z,57.53
2023-04-25T19:09:35.426Z,58.73
2023-04-25T19:12:03.248Z,59.04
2023-04-25T19:14:32.636Z,60.75
2023-04-25T19:17:00.312Z,61.24
2023-04-25T19:19:27.791Z,60.18
2023-04-25T19:21:54.424Z,58.08
2023-04-25T19:24:21.323Z,57.96
2023-04-25T19:26:50.087Z,59.38
2023-04-25T19:29:16.698Z,61.28
2023-04-25T19:31:45.767Z,62.33
2023-04-25T19:34:13.192Z,63.64
2023-04-25T19:36:41.529Z,64.09
2023-04-25T19:39:08.489Z,64.17
2023-04-25T19:41:36.665Z,64.07
2023-04-25T19:44:07.602Z,64.72
2023-04-25T19:46:35.316Z,64.77
2023-04-25T19:49:04.116Z,64.29
2023-04-25T19:51:34.143Z,66.03
2023-04-25T19:54:01.949Z,66.82
2023-04-25T19:56:29.606Z,65.21
2023-04-25T19:58:58.304Z,65.04
2023-04-25T20:01:25.012Z,65.63
2023-04-25T20:03:52.273Z,66.63
2023-04-25T20:06:19.274Z,66.16
2023-04-25T20:08:47.126Z,67.04
2023-04-25T20:11:13.827Z,66.03
2023-04-25T20:13:40.459Z,66.29
2023-04-25T20:16:07.860Z,67.30
2023-04-25T20:18:35.918Z,68.27
2023-04-25T20:21:02.797Z,67.91
2023-04-25T20:23:29.427Z,68.05
2023-04-25T20:25:56.540Z,68.41
2023-04-25T20:28:23.441Z,67.82
2023-04-25T20:30:54.784Z,68.26
2023-04-25T20:33:22.836Z,67.28
2023-04-25T20:35:49.463Z,66.28
2023-04-25T20:38:16.671Z,65.39
2023-04-25T20:40:43.200Z,64.33
2023-04-25T20:43:12.256Z,65.39
2023-04-25T20:45:39.793Z,67.91
2023-04-25T20:48:06.415Z,67.70
2023-04-25T20:50:34.054Z,67.77
2023-04-25T20:53:00.560Z,67.63
2023-04-25T20:55:27.258Z,67.51
2023-04-25T20:57:54.009Z,67.97
2023-04-25T21:00:29.772Z,67.95
2023-04-25T21:02:57.004Z,68.57
2023-04-25T21:05:24.815Z,67.49
2023-04-25T21:07:55.022Z,67.03
2023-04-25T21:10:22.044Z,66.89
2023-04-25T21:13:08.082Z,66.63
2023-04-25T21:15:35.091Z,67.29
2023-04-25T21:18:02.986Z,67.68
2023-04-25T21:20:30.410Z,68.06
2023-04-25T21:22:56.887Z,68.39
2023-04-25T21:25:31.768Z,68.49
2023-04-25T21:27:59.562Z,68.95
2023-04-25T21:30:26.363Z,69.55
2023-04-25T21:32:53.224Z,69.35
2023-04-25T21:35:21.439Z,69.67
2023-04-25T21:37:48.490Z,69.14
2023-04-25T21:40:15.623Z,69.46
2023-04-25T21:42:44.721Z,69.36
2023-04-25T21:45:12.223Z,69.97
2023-04-25T21:47:39.641Z,70.12
2023-04-25T21:50:07.500Z,70.27
2023-04-25T21:52:35.288Z,70.42
2023-04-25T21:55:02.211Z,70.42
2023-04-25T21:57:29.412Z,70.16
2023-04-25T21:59:57.166Z,70.95
2023-04-25T22:02:24.713Z,71.37
2023-04-25T22:04:52.701Z,72.22
2023-04-25T22:07:19.525Z,72.37
2023-04-25T22:09:55.129Z,72.74
2023-04-25T22:12:23.746Z,71.94
2023-04-25T22:14:50.485Z,72.35
2023-04-25T22:17:18.026Z,71.96
2023-04-25T22:19:44.956Z,71.98
2023-04-25T22:22:11.816Z,72.42
2023-04-25T22:24:39.006Z,72.48
2023-04-25T22:27:05.658Z,72.81
2023-04-25T22:29:38.724Z,72.99
2023-04-25T22:32:05.396Z,71.66
2023-04-25T22:34:32.180Z,72.97
2023-04-25T22:36:59.543Z,72.83
2023-04-25T22:39:26.068Z,72.64
2023-04-25T22:41:53.752Z,72.66
2023-04-25T22:44:22.147Z,72.88
2023-04-25T22:46:48.775Z,73.22
2023-04-25T22:49:16.837Z,73.03
2023-04-25T22:51:43.661Z,73.94
2023-04-25T22:54:10.172Z,73.83
2023-04-25T22:56:37.961Z,74.99
2023-04-25T22:59:06.384Z,74.81
2023-04-25T23:01:33.197Z,74.45
2023-04-25T23:04:00.047Z,73.18
2023-04-25T23:06:26.970Z,73.36
2023-04-25T23:08:53.981Z,74.12
2023-04-25T23:11:21.736Z,75.50
2023-04-25T23:13:48.401Z,75.98
2023-04-25T23:16:16.827Z,74.26
2023-04-25T23:18:43.737Z,74.11
2023-04-25T23:21:11.754Z,73.48
2023-04-25T23:23:39.100Z,73.17
2023-04-25T23:26:11.873Z,72.46
2023-04-25T23:28:41.633Z,72.37
2023-04-25T23:31:10.206Z,72.92
2023-04-25T23:33:37.330Z,73.51
2023-04-25T23:36:04.167Z,73.33
2023-04-25T23:38:30.984Z,73.24
2023-04-25T23:40:57.723Z,73.30
2023-04-25T23:43:24.267Z,73.76
2023-04-25T23:45:50.815Z,73.40
2023-04-25T23:48:17.434Z,74.40
2023-04-25T23:50:43.941Z,74.45
2023-04-25T23:53:11.008Z,74.43
2023-04-25T23:55:37.494Z,73.75
2023-04-25T23:58:04.090Z,73.75
